sensor_id;sensor_type;location;lat;lon;timestamp;P1;durP1;ratioP1;P2;durP2;ratioP2
5391;SDS011;2719;53.624;9.786;2023-07-31T00:00:49;2.70;;;1.33;;
5391;SDS011;2719;53.624;9.786;2023-07-31T00:03:16;10.03;;;0.97;;
5391;SDS011;2719;53.624;9.786;2023-07-31T00:05:43;5.70;;;0.90;;
5391;SDS011;2719;53.624;9.786;2023-07-31T00:08:10;8.90;;;0.90;;
5391;SDS011;2719;53.624;9.786;2023-07-31T00:10:37;6.80;;;2.00;;
5391;SDS011;2719;53.624;9.786;2023-07-31T00:13:04;4.87;;;0.80;;
5391;SDS011;2719;53.624;9.786;2023-07-31T00:15:30;12.13;;;1.03;;
5391;SDS011;2719;53.624;9.786;2023-07-31T00:17:57;6.93;;;0.80;;
5391;SDS011;2719;53.624;9.786;2023-07-31T00:20:24;4.40;;;1.17;;
5391;SDS011;2719;53.624;9.786;2023-07-31T00:22:50;3.73;;;0.87;;
5391;SDS011;2719;53.624;9.786;2023-07-31T00:25:18;7.73;;;1.10;;
5391;SDS011;2719;53.624;9.786;2023-07-31T00:27:45;9.00;;;0.87;;
5391;SDS011;2719;53.624;9.786;2023-07-31T00:30:12;5.40;;;0.80;;
5391;SDS011;2719;53.624;9.786;2023-07-31T00:32:38;8.63;;;1.10;;
5391;SDS011;2719;53.624;9.786;2023-07-31T00:35:05;10.67;;;1.30;;
5391;SDS011;2719;53.624;9.786;2023-07-31T00:37:32;6.80;;;0.70;;
5391;SDS011;2719;53.624;9.786;2023-07-31T00:39:59;4.90;;;0.80;;
5391;SDS011;2719;53.624;9.786;2023-07-31T00:42:27;7.23;;;0.97;;
5391;SDS011;2719;53.624;9.786;2023-07-31T00:44:53;3.13;;;0.93;;
5391;SDS011;2719;53.624;9.786;2023-07-31T00:47:20;7.87;;;1.00;;
5391;SDS011;2719;53.624;9.786;2023-07-31T00:49:46;5.10;;;0.87;;
5391;SDS011;2719;53.624;9.786;2023-07-31T00:52:14;12.20;;;1.43;;
5391;SDS011;2719;53.624;9.786;2023-07-31T00:54:40;10.13;;;0.90;;
5391;SDS011;2719;53.624;9.786;2023-07-31T00:57:07;7.70;;;1.33;;
5391;SDS011;2719;53.624;9.786;2023-07-31T00:59:35;5.47;;;0.80;;
5391;SDS011;2719;53.624;9.786;2023-07-31T01:02:02;6.33;;;0.90;;
5391;SDS011;2719;53.624;9.786;2023-07-31T01:04:30;7.10;;;1.40;;
5391;SDS011;2719;53.624;9.786;2023-07-31T01:06:59;5.80;;;0.87;;
5391;SDS011;2719;53.624;9.786;2023-07-31T01:09:33;12.87;;;1.37;;
5391;SDS011;2719;53.624;9.786;2023-07-31T01:12:03;4.87;;;0.70;;
5391;SDS011;2719;53.624;9.786;2023-07-31T01:14:32;7.10;;;0.90;;
5391;SDS011;2719;53.624;9.786;2023-07-31T01:17:00;10.80;;;1.07;;
5391;SDS011;2719;53.624;9.786;2023-07-31T01:19:27;18.33;;;1.70;;
5391;SDS011;2719;53.624;9.786;2023-07-31T01:21:59;4.87;;;0.73;;
5391;SDS011;2719;53.624;9.786;2023-07-31T01:24:40;9.47;;;0.80;;
5391;SDS011;2719;53.624;9.786;2023-07-31T01:27:21;5.10;;;0.73;;
5391;SDS011;2719;53.624;9.786;2023-07-31T01:29:52;8.03;;;2.50;;
5391;SDS011;2719;53.624;9.786;2023-07-31T01:32:26;8.93;;;1.13;;
5391;SDS011;2719;53.624;9.786;2023-07-31T01:34:55;5.63;;;0.80;;
5391;SDS011;2719;53.624;9.786;2023-07-31T01:37:27;3.93;;;0.80;;
5391;SDS011;2719;53.624;9.786;2023-07-31T01:39:54;8.73;;;0.93;;
5391;SDS011;2719;53.624;9.786;2023-07-31T01:42:22;8.20;;;1.20;;
5391;SDS011;2719;53.624;9.786;2023-07-31T01:44:49;7.20;;;0.80;;
5391;SDS011;2719;53.624;9.786;2023-07-31T01:47:16;5.53;;;1.00;;
5391;SDS011;2719;53.624;9.786;2023-07-31T01:49:42;5.10;;;1.10;;
5391;SDS011;2719;53.624;9.786;2023-07-31T01:52:09;6.90;;;1.13;;
5391;SDS011;2719;53.624;9.786;2023-07-31T01:54:36;6.10;;;1.33;;
5391;SDS011;2719;53.624;9.786;2023-07-31T01:57:03;10.50;;;1.50;;
5391;SDS011;2719;53.624;9.786;2023-07-31T01:59:31;8.93;;;1.13;;
5391;SDS011;2719;53.624;9.786;2023-07-31T02:01:58;7.00;;;1.73;;
5391;SDS011;2719;53.624;9.786;2023-07-31T02:04:24;3.03;;;0.90;;
5391;SDS011;2719;53.624;9.786;2023-07-31T02:06:52;7.53;;;1.53;;
5391;SDS011;2719;53.624;9.786;2023-07-31T02:09:19;16.23;;;1.20;;
5391;SDS011;2719;53.624;9.786;2023-07-31T02:11:45;11.37;;;1.80;;
5391;SDS011;2719;53.624;9.786;2023-07-31T02:14:12;5.13;;;1.30;;
5391;SDS011;2719;53.624;9.786;2023-07-31T02:16:40;15.63;;;1.47;;
5391;SDS011;2719;53.624;9.786;2023-07-31T02:19:07;5.07;;;1.73;;
5391;SDS011;2719;53.624;9.786;2023-07-31T02:21:34;7.97;;;1.40;;
5391;SDS011;2719;53.624;9.786;2023-07-31T02:24:00;4.60;;;1.00;;
5391;SDS011;2719;53.624;9.786;2023-07-31T02:26:27;8.13;;;1.10;;
5391;SDS011;2719;53.624;9.786;2023-07-31T02:28:55;7.13;;;1.23;;
5391;SDS011;2719;53.624;9.786;2023-07-31T02:31:21;8.23;;;1.10;;
5391;SDS011;2719;53.624;9.786;2023-07-31T02:33:50;8.33;;;1.47;;
5391;SDS011;2719;53.624;9.786;2023-07-31T02:36:16;4.30;;;1.20;;
5391;SDS011;2719;53.624;9.786;2023-07-31T02:38:43;4.47;;;0.80;;
5391;SDS011;2719;53.624;9.786;2023-07-31T02:41:09;8.40;;;1.43;;
5391;SDS011;2719;53.624;9.786;2023-07-31T02:43:36;8.27;;;1.47;;
5391;SDS011;2719;53.624;9.786;2023-07-31T02:46:03;7.50;;;1.10;;
5391;SDS011;2719;53.624;9.786;2023-07-31T02:48:30;8.60;;;1.47;;
5391;SDS011;2719;53.624;9.786;2023-07-31T02:50:58;4.73;;;1.30;;
5391;SDS011;2719;53.624;9.786;2023-07-31T02:53:24;5.00;;;0.80;;
5391;SDS011;2719;53.624;9.786;2023-07-31T02:55:51;6.00;;;1.20;;
5391;SDS011;2719;53.624;9.786;2023-07-31T02:58:18;8.03;;;1.47;;
5391;SDS011;2719;53.624;9.786;2023-07-31T03:00:44;6.70;;;1.13;;
5391;SDS011;2719;53.624;9.786;2023-07-31T03:03:11;12.40;;;1.53;;
5391;SDS011;2719;53.624;9.786;2023-07-31T03:05:38;7.13;;;0.90;;
5391;SDS011;2719;53.624;9.786;2023-07-31T03:08:06;5.90;;;1.20;;
5391;SDS011;2719;53.624;9.786;2023-07-31T03:10:33;3.67;;;1.00;;
5391;SDS011;2719;53.624;9.786;2023-07-31T03:13:00;4.40;;;1.20;;
5391;SDS011;2719;53.624;9.786;2023-07-31T03:15:26;6.10;;;1.90;;
5391;SDS011;2719;53.624;9.786;2023-07-31T03:17:53;6.10;;;1.40;;
5391;SDS011;2719;53.624;9.786;2023-07-31T03:20:19;6.77;;;1.20;;
5391;SDS011;2719;53.624;9.786;2023-07-31T03:22:46;9.23;;;1.37;;
5391;SDS011;2719;53.624;9.786;2023-07-31T03:25:14;5.67;;;1.13;;
5391;SDS011;2719;53.624;9.786;2023-07-31T03:27:41;2.70;;;1.27;;
5391;SDS011;2719;53.624;9.786;2023-07-31T03:30:07;5.23;;;0.93;;
5391;SDS011;2719;53.624;9.786;2023-07-31T03:32:34;5.00;;;1.37;;
5391;SDS011;2719;53.624;9.786;2023-07-31T03:35:01;5.73;;;0.87;;
5391;SDS011;2719;53.624;9.786;2023-07-31T03:37:28;4.20;;;1.07;;
5391;SDS011;2719;53.624;9.786;2023-07-31T03:39:55;6.30;;;1.20;;
5391;SDS011;2719;53.624;9.786;2023-07-31T03:42:23;8.23;;;1.00;;
5391;SDS011;2719;53.624;9.786;2023-07-31T03:44:50;7.83;;;1.57;;
5391;SDS011;2719;53.624;9.786;2023-07-31T03:47:16;8.47;;;1.47;;
5391;SDS011;2719;53.624;9.786;2023-07-31T03:49:43;6.17;;;1.20;;
5391;SDS011;2719;53.624;9.786;2023-07-31T03:52:10;10.43;;;1.20;;
5391;SDS011;2719;53.624;9.786;2023-07-31T03:54:36;5.30;;;1.13;;
5391;SDS011;2719;53.624;9.786;2023-07-31T03:57:03;3.90;;;1.47;;
5391;SDS011;2719;53.624;9.786;2023-07-31T03:59:31;6.57;;;1.87;;
5391;SDS011;2719;53.624;9.786;2023-07-31T04:01:58;4.40;;;1.10;;
5391;SDS011;2719;53.624;9.786;2023-07-31T04:04:25;3.37;;;1.20;;
5391;SDS011;2719;53.624;9.786;2023-07-31T04:06:51;6.20;;;1.57;;
5391;SDS011;2719;53.624;9.786;2023-07-31T04:09:18;5.17;;;1.10;;
5391;SDS011;2719;53.624;9.786;2023-07-31T04:11:44;14.67;;;1.47;;
5391;SDS011;2719;53.624;9.786;2023-07-31T04:14:11;7.40;;;1.33;;
5391;SDS011;2719;53.624;9.786;2023-07-31T04:16:39;7.03;;;1.27;;
5391;SDS011;2719;53.624;9.786;2023-07-31T04:19:06;5.83;;;1.27;;
5391;SDS011;2719;53.624;9.786;2023-07-31T04:21:32;4.03;;;1.00;;
5391;SDS011;2719;53.624;9.786;2023-07-31T04:23:59;4.20;;;0.90;;
5391;SDS011;2719;53.624;9.786;2023-07-31T04:26:26;4.60;;;1.13;;
5391;SDS011;2719;53.624;9.786;2023-07-31T04:28:52;2.17;;;1.30;;
5391;SDS011;2719;53.624;9.786;2023-07-31T04:31:19;2.60;;;0.80;;
5391;SDS011;2719;53.624;9.786;2023-07-31T04:33:47;2.10;;;0.70;;
5391;SDS011;2719;53.624;9.786;2023-07-31T04:36:14;9.57;;;1.90;;
5391;SDS011;2719;53.624;9.786;2023-07-31T04:38:40;10.60;;;1.23;;
5391;SDS011;2719;53.624;9.786;2023-07-31T04:41:07;5.20;;;0.93;;
5391;SDS011;2719;53.624;9.786;2023-07-31T04:43:33;4.37;;;1.00;;
5391;SDS011;2719;53.624;9.786;2023-07-31T04:46:00;3.00;;;0.90;;
5391;SDS011;2719;53.624;9.786;2023-07-31T04:48:27;1.97;;;0.80;;
5391;SDS011;2719;53.624;9.786;2023-07-31T04:50:55;1.87;;;0.87;;
5391;SDS011;2719;53.624;9.786;2023-07-31T04:53:21;1.53;;;0.60;;
5391;SDS011;2719;53.624;9.786;2023-07-31T04:55:48;2.93;;;1.07;;
5391;SDS011;2719;53.624;9.786;2023-07-31T04:58:14;2.30;;;0.90;;
5391;SDS011;2719;53.624;9.786;2023-07-31T05:00:41;1.77;;;0.83;;
5391;SDS011;2719;53.624;9.786;2023-07-31T05:03:08;2.07;;;1.00;;
5391;SDS011;2719;53.624;9.786;2023-07-31T05:05:35;2.80;;;0.90;;
5391;SDS011;2719;53.624;9.786;2023-07-31T05:08:05;2.40;;;0.70;;
5391;SDS011;2719;53.624;9.786;2023-07-31T05:10:31;1.60;;;0.90;;
5391;SDS011;2719;53.624;9.786;2023-07-31T05:12:59;4.67;;;1.10;;
5391;SDS011;2719;53.624;9.786;2023-07-31T05:15:25;1.77;;;0.77;;
5391;SDS011;2719;53.624;9.786;2023-07-31T05:17:52;1.67;;;0.70;;
5391;SDS011;2719;53.624;9.786;2023-07-31T05:20:19;2.07;;;0.80;;
5391;SDS011;2719;53.624;9.786;2023-07-31T05:22:46;7.00;;;1.20;;
5391;SDS011;2719;53.624;9.786;2023-07-31T05:25:14;2.13;;;0.70;;
5391;SDS011;2719;53.624;9.786;2023-07-31T05:27:40;4.53;;;0.97;;
5391;SDS011;2719;53.624;9.786;2023-07-31T05:30:07;2.23;;;0.77;;
5391;SDS011;2719;53.624;9.786;2023-07-31T05:32:34;1.93;;;0.70;;
5391;SDS011;2719;53.624;9.786;2023-07-31T05:35:01;2.80;;;1.00;;
5391;SDS011;2719;53.624;9.786;2023-07-31T05:37:28;2.60;;;1.00;;
5391;SDS011;2719;53.624;9.786;2023-07-31T05:39:54;2.70;;;1.07;;
5391;SDS011;2719;53.624;9.786;2023-07-31T05:42:22;1.87;;;0.67;;
5391;SDS011;2719;53.624;9.786;2023-07-31T05:44:49;2.90;;;0.80;;
5391;SDS011;2719;53.624;9.786;2023-07-31T05:47:16;2.63;;;0.80;;
5391;SDS011;2719;53.624;9.786;2023-07-31T05:49:43;1.30;;;0.80;;
5391;SDS011;2719;53.624;9.786;2023-07-31T05:52:10;1.67;;;0.97;;
5391;SDS011;2719;53.624;9.786;2023-07-31T05:54:37;3.40;;;1.00;;
5391;SDS011;2719;53.624;9.786;2023-07-31T05:57:04;1.27;;;0.70;;
5391;SDS011;2719;53.624;9.786;2023-07-31T05:59:32;1.90;;;0.67;;
5391;SDS011;2719;53.624;9.786;2023-07-31T06:01:58;4.33;;;1.00;;
5391;SDS011;2719;53.624;9.786;2023-07-31T06:04:25;3.17;;;0.90;;
5391;SDS011;2719;53.624;9.786;2023-07-31T06:06:52;1.03;;;0.57;;
5391;SDS011;2719;53.624;9.786;2023-07-31T06:09:19;2.63;;;0.80;;
5391;SDS011;2719;53.624;9.786;2023-07-31T06:11:46;1.60;;;0.70;;
5391;SDS011;2719;53.624;9.786;2023-07-31T06:14:12;1.50;;;0.73;;
5391;SDS011;2719;53.624;9.786;2023-07-31T06:16:41;3.20;;;0.80;;
5391;SDS011;2719;53.624;9.786;2023-07-31T06:19:09;2.27;;;0.70;;
5391;SDS011;2719;53.624;9.786;2023-07-31T06:21:35;2.20;;;0.60;;
5391;SDS011;2719;53.624;9.786;2023-07-31T06:24:03;1.30;;;0.70;;
5391;SDS011;2719;53.624;9.786;2023-07-31T06:26:30;5.00;;;0.80;;
5391;SDS011;2719;53.624;9.786;2023-07-31T06:28:56;3.33;;;0.67;;
5391;SDS011;2719;53.624;9.786;2023-07-31T06:31:23;2.23;;;0.80;;
5391;SDS011;2719;53.624;9.786;2023-07-31T06:33:52;1.83;;;0.63;;
5391;SDS011;2719;53.624;9.786;2023-07-31T06:36:18;4.00;;;0.60;;
5391;SDS011;2719;53.624;9.786;2023-07-31T06:38:45;1.10;;;0.60;;
5391;SDS011;2719;53.624;9.786;2023-07-31T06:41:11;1.47;;;0.60;;
5391;SDS011;2719;53.624;9.786;2023-07-31T06:43:38;1.57;;;1.03;;
5391;SDS011;2719;53.624;9.786;2023-07-31T06:46:05;1.47;;;0.60;;
5391;SDS011;2719;53.624;9.786;2023-07-31T06:48:33;1.00;;;0.60;;
5391;SDS011;2719;53.624;9.786;2023-07-31T06:51:01;2.23;;;0.80;;
5391;SDS011;2719;53.624;9.786;2023-07-31T06:53:28;1.40;;;0.63;;
5391;SDS011;2719;53.624;9.786;2023-07-31T06:55:55;2.07;;;0.73;;
5391;SDS011;2719;53.624;9.786;2023-07-31T06:58:21;3.87;;;0.90;;
5391;SDS011;2719;53.624;9.786;2023-07-31T07:00:48;2.80;;;0.70;;
5391;SDS011;2719;53.624;9.786;2023-07-31T07:03:15;1.33;;;0.77;;
5391;SDS011;2719;53.624;9.786;2023-07-31T07:05:44;1.47;;;0.80;;
5391;SDS011;2719;53.624;9.786;2023-07-31T07:08:12;2.30;;;0.80;;
5391;SDS011;2719;53.624;9.786;2023-07-31T07:10:39;0.93;;;0.50;;
5391;SDS011;2719;53.624;9.786;2023-07-31T07:13:05;1.20;;;0.67;;
5391;SDS011;2719;53.624;9.786;2023-07-31T07:15:32;2.40;;;0.63;;
5391;SDS011;2719;53.624;9.786;2023-07-31T07:17:58;1.30;;;0.60;;
5391;SDS011;2719;53.624;9.786;2023-07-31T07:20:25;0.90;;;0.50;;
5391;SDS011;2719;53.624;9.786;2023-07-31T07:22:52;1.20;;;0.70;;
5391;SDS011;2719;53.624;9.786;2023-07-31T07:25:20;2.60;;;0.90;;
5391;SDS011;2719;53.624;9.786;2023-07-31T07:27:46;1.20;;;0.77;;
5391;SDS011;2719;53.624;9.786;2023-07-31T07:30:13;1.40;;;0.67;;
5391;SDS011;2719;53.624;9.786;2023-07-31T07:32:40;1.20;;;0.63;;
5391;SDS011;2719;53.624;9.786;2023-07-31T07:35:07;2.30;;;0.70;;
5391;SDS011;2719;53.624;9.786;2023-07-31T07:37:34;0.90;;;0.50;;
5391;SDS011;2719;53.624;9.786;2023-07-31T07:40:00;1.83;;;0.80;;
5391;SDS011;2719;53.624;9.786;2023-07-31T07:42:28;1.33;;;0.70;;
5391;SDS011;2719;53.624;9.786;2023-07-31T07:44:55;1.30;;;0.70;;
5391;SDS011;2719;53.624;9.786;2023-07-31T07:47:21;1.60;;;0.90;;
5391;SDS011;2719;53.624;9.786;2023-07-31T07:49:48;1.27;;;0.80;;
5391;SDS011;2719;53.624;9.786;2023-07-31T07:52:15;1.27;;;0.83;;
5391;SDS011;2719;53.624;9.786;2023-07-31T07:54:41;1.00;;;0.70;;
5391;SDS011;2719;53.624;9.786;2023-07-31T07:57:08;1.00;;;0.63;;
5391;SDS011;2719;53.624;9.786;2023-07-31T07:59:36;1.70;;;0.70;;
5391;SDS011;2719;53.624;9.786;2023-07-31T08:02:03;2.20;;;0.60;;
5391;SDS011;2719;53.624;9.786;2023-07-31T08:04:30;2.57;;;0.80;;
5391;SDS011;2719;53.624;9.786;2023-07-31T08:06:56;1.10;;;0.60;;
5391;SDS011;2719;53.624;9.786;2023-07-31T08:09:23;1.17;;;0.67;;
5391;SDS011;2719;53.624;9.786;2023-07-31T08:11:50;1.00;;;0.70;;
5391;SDS011;2719;53.624;9.786;2023-07-31T08:14:16;5.50;;;0.77;;
5391;SDS011;2719;53.624;9.786;2023-07-31T08:16:44;6.50;;;0.87;;
5391;SDS011;2719;53.624;9.786;2023-07-31T08:19:11;1.67;;;0.60;;
5391;SDS011;2719;53.624;9.786;2023-07-31T08:21:38;1.00;;;0.67;;
5391;SDS011;2719;53.624;9.786;2023-07-31T08:24:05;2.73;;;1.23;;
5391;SDS011;2719;53.624;9.786;2023-07-31T08:26:32;0.90;;;0.60;;
5391;SDS011;2719;53.624;9.786;2023-07-31T08:28:59;0.80;;;0.50;;
5391;SDS011;2719;53.624;9.786;2023-07-31T08:31:26;3.00;;;0.63;;
5391;SDS011;2719;53.624;9.786;2023-07-31T08:33:55;1.10;;;0.50;;
5391;SDS011;2719;53.624;9.786;2023-07-31T08:36:22;1.40;;;0.60;;
5391;SDS011;2719;53.624;9.786;2023-07-31T08:38:49;1.10;;;0.50;;
5391;SDS011;2719;53.624;9.786;2023-07-31T08:41:15;2.20;;;0.50;;
5391;SDS011;2719;53.624;9.786;2023-07-31T08:43:42;1.13;;;0.50;;
5391;SDS011;2719;53.624;9.786;2023-07-31T08:46:11;1.00;;;0.50;;
5391;SDS011;2719;53.624;9.786;2023-07-31T08:48:39;0.90;;;0.60;;
5391;SDS011;2719;53.624;9.786;2023-07-31T08:51:10;0.80;;;0.50;;
5391;SDS011;2719;53.624;9.786;2023-07-31T08:53:37;1.40;;;0.50;;
5391;SDS011;2719;53.624;9.786;2023-07-31T08:56:03;1.70;;;0.50;;
5391;SDS011;2719;53.624;9.786;2023-07-31T08:58:32;1.93;;;0.50;;
5391;SDS011;2719;53.624;9.786;2023-07-31T09:01:01;1.60;;;0.50;;
5391;SDS011;2719;53.624;9.786;2023-07-31T09:03:31;0.90;;;0.43;;
5391;SDS011;2719;53.624;9.786;2023-07-31T09:06:00;2.80;;;0.40;;
5391;SDS011;2719;53.624;9.786;2023-07-31T09:08:30;0.90;;;0.53;;
5391;SDS011;2719;53.624;9.786;2023-07-31T09:10:59;0.90;;;0.40;;
5391;SDS011;2719;53.624;9.786;2023-07-31T09:13:27;1.30;;;0.57;;
5391;SDS011;2719;53.624;9.786;2023-07-31T09:15:55;1.00;;;0.50;;
5391;SDS011;2719;53.624;9.786;2023-07-31T09:18:22;3.93;;;0.40;;
5391;SDS011;2719;53.624;9.786;2023-07-31T09:20:59;2.73;;;0.40;;
5391;SDS011;2719;53.624;9.786;2023-07-31T09:23:27;0.87;;;0.40;;
5391;SDS011;2719;53.624;9.786;2023-07-31T09:26:08;1.00;;;0.47;;
5391;SDS011;2719;53.624;9.786;2023-07-31T09:28:34;0.97;;;0.40;;
5391;SDS011;2719;53.624;9.786;2023-07-31T09:31:01;1.60;;;0.50;;
5391;SDS011;2719;53.624;9.786;2023-07-31T09:33:28;2.30;;;0.50;;
5391;SDS011;2719;53.624;9.786;2023-07-31T09:35:56;1.00;;;0.40;;
5391;SDS011;2719;53.624;9.786;2023-07-31T09:38:25;3.13;;;0.50;;
5391;SDS011;2719;53.624;9.786;2023-07-31T09:40:53;2.20;;;0.50;;
5391;SDS011;2719;53.624;9.786;2023-07-31T09:43:21;1.13;;;0.50;;
5391;SDS011;2719;53.624;9.786;2023-07-31T09:45:52;0.87;;;0.50;;
5391;SDS011;2719;53.624;9.786;2023-07-31T09:48:22;1.77;;;0.50;;
5391;SDS011;2719;53.624;9.786;2023-07-31T09:50:52;1.40;;;0.53;;
5391;SDS011;2719;53.624;9.786;2023-07-31T09:53:19;1.97;;;0.60;;
5391;SDS011;2719;53.624;9.786;2023-07-31T09:55:56;1.27;;;0.60;;
5391;SDS011;2719;53.624;9.786;2023-07-31T09:58:24;1.73;;;0.80;;
5391;SDS011;2719;53.624;9.786;2023-07-31T10:00:54;0.90;;;0.40;;
5391;SDS011;2719;53.624;9.786;2023-07-31T10:03:23;1.63;;;0.40;;
5391;SDS011;2719;53.624;9.786;2023-07-31T10:05:52;1.87;;;0.60;;
5391;SDS011;2719;53.624;9.786;2023-07-31T10:08:21;0.80;;;0.40;;
5391;SDS011;2719;53.624;9.786;2023-07-31T10:10:55;2.57;;;0.60;;
5391;SDS011;2719;53.624;9.786;2023-07-31T10:13:25;2.93;;;0.60;;
5391;SDS011;2719;53.624;9.786;2023-07-31T10:15:54;1.20;;;0.40;;
5391;SDS011;2719;53.624;9.786;2023-07-31T10:18:24;0.97;;;0.50;;
5391;SDS011;2719;53.624;9.786;2023-07-31T10:20:52;2.50;;;0.50;;
5391;SDS011;2719;53.624;9.786;2023-07-31T10:23:20;0.80;;;0.40;;
5391;SDS011;2719;53.624;9.786;2023-07-31T10:25:48;0.90;;;0.30;;
5391;SDS011;2719;53.624;9.786;2023-07-31T10:28:19;1.00;;;0.30;;
5391;SDS011;2719;53.624;9.786;2023-07-31T10:30:47;1.07;;;0.40;;
5391;SDS011;2719;53.624;9.786;2023-07-31T10:33:15;1.37;;;0.40;;
5391;SDS011;2719;53.624;9.786;2023-07-31T10:35:42;1.10;;;0.50;;
5391;SDS011;2719;53.624;9.786;2023-07-31T10:38:09;3.53;;;0.50;;
5391;SDS011;2719;53.624;9.786;2023-07-31T10:40:37;0.90;;;0.50;;
5391;SDS011;2719;53.624;9.786;2023-07-31T10:43:04;1.70;;;0.50;;
5391;SDS011;2719;53.624;9.786;2023-07-31T10:45:35;1.00;;;0.50;;
5391;SDS011;2719;53.624;9.786;2023-07-31T10:48:03;2.60;;;0.47;;
5391;SDS011;2719;53.624;9.786;2023-07-31T10:50:30;1.63;;;0.70;;
5391;SDS011;2719;53.624;9.786;2023-07-31T10:52:58;1.40;;;0.50;;
5391;SDS011;2719;53.624;9.786;2023-07-31T10:55:27;1.13;;;0.40;;
5391;SDS011;2719;53.624;9.786;2023-07-31T10:57:56;3.17;;;0.50;;
5391;SDS011;2719;53.624;9.786;2023-07-31T11:00:25;1.93;;;0.57;;
5391;SDS011;2719;53.624;9.786;2023-07-31T11:02:59;0.90;;;0.40;;
5391;SDS011;2719;53.624;9.786;2023-07-31T11:05:42;1.57;;;0.40;;
5391;SDS011;2719;53.624;9.786;2023-07-31T11:08:13;1.53;;;0.40;;
5391;SDS011;2719;53.624;9.786;2023-07-31T11:10:41;0.90;;;0.40;;
5391;SDS011;2719;53.624;9.786;2023-07-31T11:13:09;0.90;;;0.43;;
5391;SDS011;2719;53.624;9.786;2023-07-31T11:15:36;0.90;;;0.43;;
5391;SDS011;2719;53.624;9.786;2023-07-31T11:18:04;1.10;;;0.40;;
5391;SDS011;2719;53.624;9.786;2023-07-31T11:20:33;0.80;;;0.33;;
5391;SDS011;2719;53.624;9.786;2023-07-31T11:23:00;1.43;;;0.70;;
5391;SDS011;2719;53.624;9.786;2023-07-31T11:25:28;0.90;;;0.50;;
5391;SDS011;2719;53.624;9.786;2023-07-31T11:27:56;2.80;;;0.40;;
5391;SDS011;2719;53.624;9.786;2023-07-31T11:30:23;2.17;;;0.53;;
5391;SDS011;2719;53.624;9.786;2023-07-31T11:32:50;0.90;;;0.40;;
5391;SDS011;2719;53.624;9.786;2023-07-31T11:35:18;1.20;;;0.50;;
5391;SDS011;2719;53.624;9.786;2023-07-31T11:37:45;1.77;;;0.50;;
5391;SDS011;2719;53.624;9.786;2023-07-31T11:40:11;1.37;;;0.40;;
5391;SDS011;2719;53.624;9.786;2023-07-31T11:42:38;1.97;;;0.40;;
5391;SDS011;2719;53.624;9.786;2023-07-31T11:45:05;1.73;;;0.43;;
5391;SDS011;2719;53.624;9.786;2023-07-31T11:47:33;0.90;;;0.40;;
5391;SDS011;2719;53.624;9.786;2023-07-31T11:50:01;2.30;;;0.53;;
5391;SDS011;2719;53.624;9.786;2023-07-31T11:52:31;0.90;;;0.40;;
5391;SDS011;2719;53.624;9.786;2023-07-31T11:55:00;1.53;;;0.50;;
5391;SDS011;2719;53.624;9.786;2023-07-31T11:57:27;3.40;;;0.50;;
5391;SDS011;2719;53.624;9.786;2023-07-31T11:59:54;1.00;;;0.50;;
5391;SDS011;2719;53.624;9.786;2023-07-31T12:02:22;1.87;;;0.53;;
5391;SDS011;2719;53.624;9.786;2023-07-31T12:04:49;1.37;;;0.50;;
5391;SDS011;2719;53.624;9.786;2023-07-31T12:07:16;1.73;;;0.50;;
5391;SDS011;2719;53.624;9.786;2023-07-31T12:09:51;1.77;;;0.50;;
5391;SDS011;2719;53.624;9.786;2023-07-31T12:12:22;2.40;;;0.60;;
5391;SDS011;2719;53.624;9.786;2023-07-31T12:14:49;1.00;;;0.50;;
5391;SDS011;2719;53.624;9.786;2023-07-31T12:17:17;0.97;;;0.43;;
5391;SDS011;2719;53.624;9.786;2023-07-31T12:19:45;1.70;;;0.53;;
5391;SDS011;2719;53.624;9.786;2023-07-31T12:22:11;1.10;;;0.50;;
5391;SDS011;2719;53.624;9.786;2023-07-31T12:24:39;1.93;;;0.50;;
5391;SDS011;2719;53.624;9.786;2023-07-31T12:27:11;1.43;;;0.50;;
5391;SDS011;2719;53.624;9.786;2023-07-31T12:29:38;0.80;;;0.30;;
5391;SDS011;2719;53.624;9.786;2023-07-31T12:32:17;1.00;;;0.40;;
5391;SDS011;2719;53.624;9.786;2023-07-31T12:34:45;0.80;;;0.40;;
5391;SDS011;2719;53.624;9.786;2023-07-31T12:37:12;1.00;;;0.43;;
5391;SDS011;2719;53.624;9.786;2023-07-31T12:39:38;1.23;;;0.50;;
5391;SDS011;2719;53.624;9.786;2023-07-31T12:42:05;0.90;;;0.40;;
5391;SDS011;2719;53.624;9.786;2023-07-31T12:44:33;1.00;;;0.40;;
5391;SDS011;2719;53.624;9.786;2023-07-31T12:47:00;0.93;;;0.50;;
5391;SDS011;2719;53.624;9.786;2023-07-31T12:49:27;1.03;;;0.40;;
5391;SDS011;2719;53.624;9.786;2023-07-31T12:51:54;1.73;;;0.40;;
5391;SDS011;2719;53.624;9.786;2023-07-31T12:54:20;1.00;;;0.40;;
5391;SDS011;2719;53.624;9.786;2023-07-31T12:56:47;0.90;;;0.40;;
5391;SDS011;2719;53.624;9.786;2023-07-31T12:59:13;1.10;;;0.40;;
5391;SDS011;2719;53.624;9.786;2023-07-31T13:01:41;1.10;;;0.40;;
5391;SDS011;2719;53.624;9.786;2023-07-31T13:04:08;1.40;;;0.40;;
5391;SDS011;2719;53.624;9.786;2023-07-31T13:06:35;0.80;;;0.43;;
5391;SDS011;2719;53.624;9.786;2023-07-31T13:09:01;1.10;;;0.50;;
5391;SDS011;2719;53.624;9.786;2023-07-31T13:11:29;1.00;;;0.40;;
5391;SDS011;2719;53.624;9.786;2023-07-31T13:13:55;1.00;;;0.40;;
5391;SDS011;2719;53.624;9.786;2023-07-31T13:16:22;3.50;;;0.40;;
5391;SDS011;2719;53.624;9.786;2023-07-31T13:18:50;0.80;;;0.37;;
5391;SDS011;2719;53.624;9.786;2023-07-31T13:21:18;1.00;;;0.40;;
5391;SDS011;2719;53.624;9.786;2023-07-31T13:23:46;1.00;;;0.40;;
5391;SDS011;2719;53.624;9.786;2023-07-31T13:26:13;1.00;;;0.40;;
5391;SDS011;2719;53.624;9.786;2023-07-31T13:28:39;1.27;;;0.30;;
5391;SDS011;2719;53.624;9.786;2023-07-31T13:31:06;0.90;;;0.40;;
5391;SDS011;2719;53.624;9.786;2023-07-31T13:33:33;2.30;;;0.50;;
5391;SDS011;2719;53.624;9.786;2023-07-31T13:36:01;1.33;;;0.40;;
5391;SDS011;2719;53.624;9.786;2023-07-31T13:38:28;1.10;;;0.50;;
5391;SDS011;2719;53.624;9.786;2023-07-31T13:40:54;0.80;;;0.40;;
5391;SDS011;2719;53.624;9.786;2023-07-31T13:43:21;0.90;;;0.40;;
5391;SDS011;2719;53.624;9.786;2023-07-31T13:45:48;1.00;;;0.40;;
5391;SDS011;2719;53.624;9.786;2023-07-31T13:48:14;1.00;;;0.33;;
5391;SDS011;2719;53.624;9.786;2023-07-31T13:50:41;1.00;;;0.40;;
5391;SDS011;2719;53.624;9.786;2023-07-31T13:53:09;0.80;;;0.30;;
5391;SDS011;2719;53.624;9.786;2023-07-31T13:55:35;1.40;;;0.40;;
5391;SDS011;2719;53.624;9.786;2023-07-31T13:58:02;1.00;;;0.40;;
5391;SDS011;2719;53.624;9.786;2023-07-31T14:00:29;1.63;;;0.47;;
5391;SDS011;2719;53.624;9.786;2023-07-31T14:02:55;0.80;;;0.40;;
5391;SDS011;2719;53.624;9.786;2023-07-31T14:05:22;0.80;;;0.40;;
5391;SDS011;2719;53.624;9.786;2023-07-31T14:07:48;0.83;;;0.33;;
5391;SDS011;2719;53.624;9.786;2023-07-31T14:10:16;2.20;;;0.50;;
5391;SDS011;2719;53.624;9.786;2023-07-31T14:12:43;1.00;;;0.50;;
5391;SDS011;2719;53.624;9.786;2023-07-31T14:15:10;1.40;;;0.40;;
5391;SDS011;2719;53.624;9.786;2023-07-31T14:17:36;1.00;;;0.50;;
5391;SDS011;2719;53.624;9.786;2023-07-31T14:20:03;0.80;;;0.40;;
5391;SDS011;2719;53.624;9.786;2023-07-31T14:22:31;2.50;;;0.60;;
5391;SDS011;2719;53.624;9.786;2023-07-31T14:24:59;0.90;;;0.40;;
5391;SDS011;2719;53.624;9.786;2023-07-31T14:27:26;1.10;;;0.40;;
5391;SDS011;2719;53.624;9.786;2023-07-31T14:29:53;1.00;;;0.40;;
5391;SDS011;2719;53.624;9.786;2023-07-31T14:32:20;1.00;;;0.40;;
5391;SDS011;2719;53.624;9.786;2023-07-31T14:34:48;0.80;;;0.50;;
5391;SDS011;2719;53.624;9.786;2023-07-31T14:37:14;0.90;;;0.40;;
5391;SDS011;2719;53.624;9.786;2023-07-31T14:39:41;1.00;;;0.50;;
5391;SDS011;2719;53.624;9.786;2023-07-31T14:42:08;1.00;;;0.40;;
5391;SDS011;2719;53.624;9.786;2023-07-31T14:44:36;1.17;;;0.40;;
5391;SDS011;2719;53.624;9.786;2023-07-31T14:47:03;0.80;;;0.40;;
5391;SDS011;2719;53.624;9.786;2023-07-31T14:49:30;1.33;;;0.40;;
5391;SDS011;2719;53.624;9.786;2023-07-31T14:51:57;2.20;;;0.40;;
5391;SDS011;2719;53.624;9.786;2023-07-31T14:54:23;1.97;;;0.50;;
5391;SDS011;2719;53.624;9.786;2023-07-31T14:56:50;7.00;;;2.30;;
5391;SDS011;2719;53.624;9.786;2023-07-31T14:59:17;0.90;;;0.53;;
5391;SDS011;2719;53.624;9.786;2023-07-31T15:01:45;0.80;;;0.33;;
5391;SDS011;2719;53.624;9.786;2023-07-31T15:04:11;0.80;;;0.40;;
5391;SDS011;2719;53.624;9.786;2023-07-31T15:06:38;2.20;;;0.50;;
5391;SDS011;2719;53.624;9.786;2023-07-31T15:09:04;0.87;;;0.40;;
5391;SDS011;2719;53.624;9.786;2023-07-31T15:11:32;1.83;;;0.40;;
5391;SDS011;2719;53.624;9.786;2023-07-31T15:13:58;1.90;;;0.63;;
5391;SDS011;2719;53.624;9.786;2023-07-31T15:16:25;2.53;;;0.50;;